Time;durP1;ratioP1;P1;durP2;ratioP2;P2;SDS_P1;SDS_P2;PMS_P1;PMS_P2;Temp;Humidity;BMP_temperature;BMP_pressure;BME280_temperature;BME280_humidity;BME280_pressure;Samples;Min_cycle;Max_cycle;Signal;HPM_P1;HPM_P2
2022/06/17 00:01:42;;;;;;;3.03;2.72;;;15.50;99.90;;;;;;5053147;28;20033;-45
2022/06/17 00:04:07;;;;;;;3.60;2.88;;;15.50;99.90;;;;;;5051750;28;20037;-45
2022/06/17 00:06:39;;;;;;;4.03;3.60;;;15.40;99.90;;;;;;5050860;28;20047;-46
2022/06/17 00:09:07;;;;;;;5.20;3.33;;;15.40;99.90;;;;;;5052097;28;20048;-50
2022/06/17 00:11:35;;;;;;;4.72;3.65;;;15.40;99.90;;;;;;5054218;28;20072;-47
2022/06/17 00:14:02;;;;;;;4.22;3.60;;;15.40;99.90;;;;;;5051459;28;20040;-49
2022/06/17 00:16:29;;;;;;;16.90;12.93;;;15.30;99.90;;;;;;5058664;28;20040;-49
2022/06/17 00:18:55;;;;;;;7.90;5.55;;;15.30;99.90;;;;;;5052426;28;20260;-46
2022/06/17 00:21:27;;;;;;;6.70;4.95;;;15.20;99.90;;;;;;5056270;28;20484;-46
2022/06/17 00:23:53;;;;;;;6.15;5.00;;;15.30;99.90;;;;;;5057363;28;20043;-45
2022/06/17 00:26:19;;;;;;;6.57;4.72;;;15.30;99.90;;;;;;5055749;28;20044;-48
2022/06/17 00:28:45;;;;;;;5.88;4.20;;;15.20;99.90;;;;;;5055850;28;20024;-46
2022/06/17 00:31:11;;;;;;;9.07;5.07;;;15.20;99.90;;;;;;5055674;28;20036;-45
2022/06/17 00:33:37;;;;;;;5.53;4.75;;;15.20;99.90;;;;;;5059232;28;20072;-46
2022/06/17 00:36:04;;;;;;;4.88;3.88;;;15.20;99.90;;;;;;5057228;28;20036;-46
2022/06/17 00:38:33;;;;;;;4.55;3.70;;;15.20;99.90;;;;;;5053844;28;20365;-46
2022/06/17 00:41:11;;;;;;;6.60;4.15;;;15.10;99.90;;;;;;5060006;28;20092;-46
2022/06/17 00:43:39;;;;;;;4.85;4.22;;;15.10;99.90;;;;;;5054957;28;20084;-47
2022/06/17 00:46:24;;;;;;;5.53;4.57;;;15.10;99.90;;;;;;5059399;28;20162;-45
2022/06/17 00:49:23;;;;;;;5.18;4.05;;;15.10;99.90;;;;;;5057445;28;20039;-47
2022/06/17 00:52:17;;;;;;;5.25;4.10;;;15.10;99.90;;;;;;5057716;28;20033;-45
2022/06/17 00:55:09;;;;;;;4.15;3.75;;;15.10;99.90;;;;;;5063614;28;20051;-47
2022/06/17 00:57:39;;;;;;;5.15;4.32;;;15.00;99.90;;;;;;5055890;28;20053;-44
2022/06/17 01:00:16;;;;;;;5.38;4.43;;;15.00;99.90;;;;;;5061176;28;20067;-46
2022/06/17 01:02:51;;;;;;;6.55;5.60;;;15.00;99.90;;;;;;5055628;28;20516;-47
2022/06/17 01:05:20;;;;;;;5.28;4.25;;;15.00;99.90;;;;;;5056313;28;20119;-47
2022/06/17 01:07:53;;;;;;;4.47;4.05;;;15.00;99.90;;;;;;5058156;28;20083;-49
2022/06/17 01:10:19;;;;;;;6.55;4.55;;;14.90;99.90;;;;;;5054280;28;20036;-49
2022/06/17 01:12:48;;;;;;;3.70;3.38;;;14.90;99.90;;;;;;5053850;28;20048;-49
2022/06/17 01:15:20;;;;;;;5.53;5.03;;;14.90;99.90;;;;;;5055632;28;20147;-48
2022/06/17 01:17:47;;;;;;;6.85;5.07;;;14.90;99.90;;;;;;5059829;28;20081;-46
2022/06/17 01:20:14;;;;;;;7.78;4.68;;;14.90;99.90;;;;;;5057027;28;20033;-47
2022/06/17 01:22:43;;;;;;;4.57;4.18;;;14.80;99.90;;;;;;5058111;28;20133;-47
2022/06/17 01:25:12;;;;;;;5.25;4.75;;;14.80;99.90;;;;;;5056472;28;20048;-44
2022/06/17 01:27:48;;;;;;;5.75;4.60;;;14.80;99.90;;;;;;5058673;28;20417;-48
2022/06/17 01:30:19;;;;;;;5.32;4.70;;;14.80;99.90;;;;;;5057858;28;20052;-45
2022/06/17 01:32:58;;;;;;;5.50;5.00;;;14.80;99.90;;;;;;5059674;28;20245;-44
2022/06/17 01:35:28;;;;;;;6.15;5.20;;;14.80;99.90;;;;;;5055907;28;20052;-44
2022/06/17 01:37:55;;;;;;;6.43;5.70;;;14.80;99.90;;;;;;5059608;28;20037;-46
2022/06/17 01:40:21;;;;;;;7.20;5.85;;;14.80;99.90;;;;;;5057493;28;20048;-48
2022/06/17 01:42:48;;;;;;;6.07;4.95;;;14.80;99.90;;;;;;5056649;28;20056;-44
2022/06/17 01:45:15;;;;;;;5.70;5.10;;;14.70;99.90;;;;;;5057231;28;20253;-47
2022/06/17 01:47:44;;;;;;;5.05;4.55;;;14.70;99.90;;;;;;5053781;28;20040;-46
2022/06/17 01:50:19;;;;;;;7.47;5.78;;;14.70;99.90;;;;;;5057127;28;20091;-45
2022/06/17 01:53:09;;;;;;;5.95;5.35;;;14.70;99.90;;;;;;5058125;28;20041;-46
2022/06/17 01:55:47;;;;;;;8.30;6.45;;;14.70;99.90;;;;;;5058505;28;20505;-46
2022/06/17 01:58:16;;;;;;;7.82;6.82;;;14.60;99.90;;;;;;5057929;28;20032;-45
2022/06/17 02:00:42;;;;;;;4.60;4.20;;;14.60;99.90;;;;;;5055021;28;20045;-46
2022/06/17 02:03:18;;;;;;;7.32;4.78;;;14.60;99.90;;;;;;5057394;28;20033;-47
2022/06/17 02:05:49;;;;;;;5.70;4.93;;;14.60;99.90;;;;;;5035761;28;20212;-47
2022/06/17 02:08:15;;;;;;;7.22;5.50;;;14.60;99.90;;;;;;5038099;28;20047;-48
2022/06/17 02:10:44;;;;;;;5.63;5.13;;;14.60;99.90;;;;;;5059965;28;20033;-50
2022/06/17 02:13:11;;;;;;;5.80;4.47;;;14.60;99.90;;;;;;5050661;28;20045;-46
2022/06/17 02:15:37;;;;;;;6.68;5.65;;;14.60;99.90;;;;;;5051165;28;20139;-47
2022/06/17 02:18:07;;;;;;;7.80;7.00;;;14.50;99.90;;;;;;5052847;28;20044;-47
2022/06/17 02:20:33;;;;;;;6.93;5.57;;;14.50;99.90;;;;;;5057153;28;20047;-49
2022/06/17 02:23:00;;;;;;;4.75;4.20;;;14.50;99.90;;;;;;5055914;28;20071;-49
2022/06/17 02:25:34;;;;;;;6.78;5.82;;;14.50;99.90;;;;;;5039018;28;20315;-49
2022/06/17 02:28:01;;;;;;;5.18;4.68;;;14.50;99.90;;;;;;5053832;28;20037;-46
2022/06/17 02:30:29;;;;;;;7.45;5.18;;;14.50;99.90;;;;;;5054733;28;20123;-45
2022/06/17 02:32:59;;;;;;;5.28;4.57;;;14.50;99.90;;;;;;5055777;28;20041;-46
2022/06/17 02:36:10;;;;;;;5.30;4.80;;;14.50;99.90;;;;;;5061007;28;20074;-48
2022/06/17 02:38:38;;;;;;;6.28;5.53;;;14.50;99.90;;;;;;5044699;28;20102;-49
2022/06/17 02:41:11;;;;;;;6.85;6.13;;;14.50;99.90;;;;;;5055901;28;20090;-45
2022/06/17 02:43:45;;;;;;;4.47;4.07;;;14.50;99.90;;;;;;5055856;28;20129;-45
2022/06/17 02:46:15;;;;;;;5.65;5.15;;;14.50;99.90;;;;;;5039601;28;20090;-45
2022/06/17 02:48:53;;;;;;;4.72;4.25;;;14.40;99.90;;;;;;5041308;28;20070;-46
2022/06/17 02:51:21;;;;;;;4.55;3.75;;;14.40;99.90;;;;;;5051879;28;20365;-47
2022/06/17 02:53:47;;;;;;;4.97;4.45;;;14.40;99.90;;;;;;5056379;28;20120;-48
2022/06/17 02:56:24;;;;;;;4.05;3.63;;;14.40;99.90;;;;;;5057700;28;20111;-47
2022/06/17 02:59:05;;;;;;;6.25;5.57;;;14.40;99.90;;;;;;5052457;28;20494;-49
2022/06/17 03:01:34;;;;;;;6.45;5.32;;;14.40;99.90;;;;;;5054231;28;20510;-47
2022/06/17 03:04:01;;;;;;;7.78;4.90;;;14.40;99.90;;;;;;5053691;28;20051;-46
2022/06/17 03:06:36;;;;;;;5.88;4.70;;;14.30;99.90;;;;;;5057325;28;20482;-48
2022/06/17 03:09:23;;;;;;;8.43;5.63;;;14.30;99.90;;;;;;5066025;28;20041;-47
2022/06/17 03:12:09;;;;;;;6.65;5.20;;;14.30;99.90;;;;;;5057336;28;20045;-47
2022/06/17 03:14:41;;;;;;;4.93;4.45;;;14.30;99.90;;;;;;5058872;28;20140;-47
2022/06/17 03:17:11;;;;;;;4.70;4.15;;;14.30;99.90;;;;;;5054076;28;20080;-49
2022/06/17 03:19:38;;;;;;;5.25;4.68;;;14.20;99.90;;;;;;5058226;28;20129;-46
2022/06/17 03:22:06;;;;;;;5.70;4.72;;;14.20;99.90;;;;;;5061379;28;20048;-48
2022/06/17 03:24:55;;;;;;;4.43;3.13;;;14.30;99.90;;;;;;5053111;28;20067;-48
2022/06/17 03:27:46;;;;;;;4.63;4.15;;;14.30;99.90;;;;;;5057860;28;20052;-48
2022/06/17 03:30:19;;;;;;;5.05;3.92;;;14.20;99.90;;;;;;5062026;28;20123;-47
2022/06/17 03:32:51;;;;;;;5.05;4.68;;;14.20;99.90;;;;;;5055037;28;20106;-46
2022/06/17 03:35:22;;;;;;;5.97;4.53;;;14.20;99.90;;;;;;5055053;28;20045;-48
2022/06/17 03:37:57;;;;;;;4.53;3.72;;;14.20;99.90;;;;;;5031477;28;20436;-53
2022/06/17 03:40:30;;;;;;;5.32;4.32;;;14.20;99.90;;;;;;5063048;28;20463;-47
2022/06/17 03:43:15;;;;;;;5.28;4.68;;;14.20;99.90;;;;;;5058893;28;20053;-49
2022/06/17 03:45:46;;;;;;;6.47;4.65;;;14.20;99.90;;;;;;5058753;28;21136;-46
2022/06/17 03:48:17;;;;;;;3.05;2.75;;;14.20;99.90;;;;;;5037188;28;20064;-48
2022/06/17 03:50:47;;;;;;;5.07;3.13;;;14.20;99.90;;;;;;5059694;28;20052;-48
2022/06/17 03:53:32;;;;;;;3.40;3.10;;;14.20;99.90;;;;;;5062379;28;20049;-46
2022/06/17 03:56:04;;;;;;;3.40;3.10;;;14.30;99.90;;;;;;5062559;28;20028;-45
2022/06/17 03:58:31;;;;;;;6.03;3.63;;;14.30;99.90;;;;;;5046030;28;20045;-47
2022/06/17 04:01:36;;;;;;;4.90;3.45;;;14.30;99.90;;;;;;5064445;28;20372;-45
2022/06/17 04:04:09;;;;;;;4.55;3.10;;;14.30;99.90;;;;;;5051201;28;20048;-45
2022/06/17 04:06:39;;;;;;;4.03;3.03;;;14.40;99.90;;;;;;5066992;28;20048;-45
2022/06/17 04:09:17;;;;;;;4.30;3.05;;;14.40;99.90;;;;;;5065914;28;20036;-45
2022/06/17 04:11:48;;;;;;;3.35;2.85;;;14.50;99.90;;;;;;5059973;28;20489;-45
2022/06/17 04:14:19;;;;;;;4.18;3.10;;;14.50;99.90;;;;;;5059518;28;20408;-46
2022/06/17 04:17:12;;;;;;;4.80;2.95;;;14.50;99.90;;;;;;5056190;28;20045;-47
2022/06/17 04:19:39;;;;;;;4.68;3.53;;;14.50;99.90;;;;;;5058142;28;20090;-46
2022/06/17 04:22:35;;;;;;;3.80;2.83;;;14.60;99.90;;;;;;5063975;28;20103;-45
2022/06/17 04:25:06;;;;;;;3.85;2.88;;;14.70;99.90;;;;;;5061267;28;20473;-48
2022/06/17 04:30:23;;;;;;;4.25;3.25;;;14.80;99.90;;;;;;5060716;28;20036;-45
2022/06/17 04:32:54;;;;;;;4.28;3.17;;;14.90;99.90;;;;;;5057882;28;20040;-46
2022/06/17 04:35:20;;;;;;;4.68;3.05;;;14.90;99.90;;;;;;5059725;28;20134;-47
2022/06/17 04:37:46;;;;;;;3.47;3.17;;;15.00;99.90;;;;;;5057534;28;20029;-46
2022/06/17 04:40:40;;;;;;;5.30;2.78;;;15.00;99.90;;;;;;5058813;28;20040;-45
2022/06/17 04:43:16;;;;;;;4.20;3.10;;;15.10;99.90;;;;;;5058617;28;20064;-45
2022/06/17 04:45:53;;;;;;;3.97;2.83;;;15.10;99.90;;;;;;5056608;28;20263;-47
2022/06/17 04:48:19;;;;;;;6.50;2.63;;;15.20;99.90;;;;;;5059528;28;20044;-47
2022/06/17 04:50:45;;;;;;;4.78;2.75;;;15.30;99.90;;;;;;5040350;28;20044;-47
2022/06/17 04:53:11;;;;;;;6.18;2.85;;;15.30;99.90;;;;;;5063956;28;20076;-50
2022/06/17 04:55:41;;;;;;;5.00;2.40;;;15.30;99.90;;;;;;5060279;28;20082;-48
2022/06/17 04:58:08;;;;;;;3.55;3.25;;;15.40;99.90;;;;;;5057421;28;20039;-48
2022/06/17 05:00:34;;;;;;;3.97;2.83;;;15.50;99.90;;;;;;5056393;28;20052;-48
2022/06/17 05:02:59;;;;;;;2.80;2.33;;;15.50;99.90;;;;;;5038099;28;20029;-47
2022/06/17 05:05:34;;;;;;;3.72;3.05;;;15.50;99.90;;;;;;5060352;28;20037;-48
2022/06/17 05:08:03;;;;;;;3.58;2.58;;;15.60;99.90;;;;;;5061691;28;20048;-48
2022/06/17 05:10:37;;;;;;;4.20;2.70;;;15.60;99.90;;;;;;5062840;28;20528;-49
2022/06/17 05:13:10;;;;;;;6.32;2.95;;;15.60;99.90;;;;;;5055435;28;20072;-49
2022/06/17 05:15:37;;;;;;;5.55;3.10;;;15.70;99.90;;;;;;5058651;28;20497;-48
2022/06/17 05:18:03;;;;;;;5.75;2.70;;;15.70;99.90;;;;;;5060907;28;20044;-47
2022/06/17 05:20:28;;;;;;;5.60;2.95;;;15.80;99.90;;;;;;5059359;28;20048;-49
2022/06/17 05:23:04;;;;;;;3.45;2.10;;;15.80;99.90;;;;;;5054854;28;20545;-47
2022/06/17 05:25:29;;;;;;;4.25;2.13;;;15.80;99.90;;;;;;5054142;28;20051;-47
2022/06/17 05:27:55;;;;;;;4.03;3.05;;;15.90;99.90;;;;;;5061074;28;20041;-47
2022/06/17 05:30:21;;;;;;;6.38;3.33;;;15.90;99.90;;;;;;5054920;28;20056;-45
2022/06/17 05:32:49;;;;;;;6.10;2.95;;;15.90;99.90;;;;;;5059984;28;20059;-49
2022/06/17 05:35:15;;;;;;;5.75;3.35;;;16.00;99.90;;;;;;5065896;28;20036;-47
2022/06/17 05:37:41;;;;;;;4.50;2.75;;;16.00;99.90;;;;;;5058034;28;20032;-45
2022/06/17 05:40:08;;;;;;;5.57;2.90;;;16.10;99.90;;;;;;5040819;28;20029;-45
2022/06/17 05:42:35;;;;;;;7.25;3.53;;;16.10;99.90;;;;;;5063219;28;20089;-45
2022/06/17 05:45:01;;;;;;;3.35;3.00;;;16.20;99.90;;;;;;5056855;28;20082;-45
2022/06/17 05:47:27;;;;;;;4.05;3.00;;;16.20;99.90;;;;;;5063466;28;20036;-46
2022/06/17 05:49:53;;;;;;;5.15;3.55;;;16.30;99.90;;;;;;5056963;28;20394;-45
2022/06/17 05:52:19;;;;;;;6.47;4.07;;;16.30;99.90;;;;;;5058680;28;20051;-45
2022/06/17 05:54:45;;;;;;;6.13;3.20;;;16.40;99.90;;;;;;5052011;28;20044;-46
2022/06/17 05:57:11;;;;;;;3.88;3.25;;;16.40;99.90;;;;;;5057619;28;20136;-46
2022/06/17 05:59:37;;;;;;;4.22;3.58;;;16.40;99.90;;;;;;5058845;28;20133;-46
2022/06/17 06:02:03;;;;;;;5.50;3.50;;;16.50;99.90;;;;;;5062194;28;20041;-49
2022/06/17 06:04:31;;;;;;;6.53;3.58;;;16.60;99.90;;;;;;5055944;28;20120;-45
2022/06/17 06:06:57;;;;;;;5.80;3.83;;;16.60;99.90;;;;;;5057710;28;20116;-46
2022/06/17 06:09:23;;;;;;;9.50;4.82;;;16.70;99.90;;;;;;5058544;28;20482;-49
2022/06/17 06:11:49;;;;;;;5.20;3.45;;;16.70;99.90;;;;;;5064741;28;20041;-45
2022/06/17 06:14:15;;;;;;;4.75;3.55;;;16.70;99.90;;;;;;5064322;28;20048;-46
2022/06/17 06:16:40;;;;;;;5.88;3.97;;;16.80;99.90;;;;;;5048658;28;20041;-48
2022/06/17 06:19:06;;;;;;;4.68;4.13;;;16.90;99.90;;;;;;5052639;28;20045;-46
2022/06/17 06:21:32;;;;;;;5.45;4.63;;;16.90;99.90;;;;;;5054482;28;20049;-45
2022/06/17 06:23:57;;;;;;;6.90;3.90;;;16.90;99.90;;;;;;5058522;28;20609;-45
2022/06/17 06:26:24;;;;;;;5.80;3.70;;;17.00;99.90;;;;;;5055836;28;20036;-46
2022/06/17 06:28:50;;;;;;;5.00;3.65;;;17.00;99.90;;;;;;5057218;28;20119;-46
2022/06/17 06:31:26;;;;;;;6.57;3.90;;;17.10;99.90;;;;;;5054205;28;20082;-46
2022/06/17 06:33:53;;;;;;;6.78;3.67;;;17.10;99.90;;;;;;5055421;28;20039;-45
2022/06/17 06:36:18;;;;;;;5.93;3.40;;;17.20;99.90;;;;;;5054538;28;20098;-45
2022/06/17 06:38:44;;;;;;;5.90;3.33;;;17.20;99.90;;;;;;5057757;28;20048;-46
2022/06/17 06:41:10;;;;;;;5.32;4.07;;;17.20;99.90;;;;;;5055474;28;20076;-46
2022/06/17 06:43:36;;;;;;;5.57;3.58;;;17.30;99.90;;;;;;5037122;28;20136;-46
2022/06/17 06:46:10;;;;;;;4.88;3.53;;;17.30;99.90;;;;;;5057876;28;20090;-49
2022/06/17 06:48:37;;;;;;;4.53;3.78;;;17.40;99.90;;;;;;5052213;28;20043;-48
2022/06/17 06:51:03;;;;;;;7.13;3.90;;;17.40;99.90;;;;;;5053470;28;20483;-46
2022/06/17 06:53:29;;;;;;;7.80;4.70;;;17.50;99.90;;;;;;5059370;28;20507;-49
2022/06/17 06:55:55;;;;;;;6.63;4.50;;;17.50;99.90;;;;;;5060385;28;20047;-46
2022/06/17 06:58:24;;;;;;;6.57;3.92;;;17.50;99.90;;;;;;5052928;28;20107;-45
2022/06/17 07:00:55;;;;;;;5.32;4.30;;;17.60;99.90;;;;;;5040295;28;20048;-49
2022/06/17 07:03:22;;;;;;;5.20;4.07;;;17.70;99.90;;;;;;5037987;28;20041;-49
2022/06/17 07:05:53;;;;;;;6.40;3.88;;;17.70;99.90;;;;;;5047981;28;20138;-47
2022/06/17 07:08:21;;;;;;;6.97;4.22;;;17.70;99.90;;;;;;5050201;28;20041;-46
2022/06/17 07:10:48;;;;;;;5.57;3.58;;;17.80;99.90;;;;;;5038667;28;20044;-45
2022/06/17 07:13:14;;;;;;;6.43;4.28;;;17.90;99.90;;;;;;5051299;28;20087;-49
2022/06/17 07:15:41;;;;;;;7.03;3.92;;;18.00;99.90;;;;;;5033078;28;20055;-48
2022/06/17 07:18:18;;;;;;;10.13;4.10;;;18.00;99.90;;;;;;5046916;28;20041;-50
2022/06/17 07:20:47;;;;;;;9.25;4.82;;;18.10;99.90;;;;;;5055981;28;20096;-46
2022/06/17 07:23:19;;;;;;;6.28;4.90;;;18.10;99.90;;;;;;5042762;28;20452;-50
2022/06/17 07:25:45;;;;;;;6.38;4.38;;;18.20;99.90;;;;;;5055978;28;20033;-49
2022/06/17 07:28:21;;;;;;;6.03;3.95;;;18.30;99.90;;;;;;5051948;28;20041;-50
2022/06/17 07:30:50;;;;;;;8.40;4.50;;;18.30;99.90;;;;;;5054677;28;20044;-48
2022/06/17 07:33:18;;;;;;;9.23;4.65;;;18.30;99.90;;;;;;5041447;28;20046;-49
2022/06/17 07:35:45;;;;;;;6.07;4.10;;;18.40;99.90;;;;;;5037385;28;20091;-48
2022/06/17 07:41:05;;;;;;;6.57;4.60;;;18.50;99.90;;;;;;5042035;28;20436;-49
2022/06/17 07:43:31;;;;;;;5.63;4.53;;;18.60;99.90;;;;;;5043304;28;20496;-49
2022/06/17 07:45:58;;;;;;;7.25;4.32;;;18.60;99.90;;;;;;5040306;28;20499;-47
2022/06/17 07:48:24;;;;;;;6.47;4.47;;;18.70;99.90;;;;;;5049419;28;20124;-50
2022/06/17 07:50:50;;;;;;;6.60;4.50;;;18.80;99.90;;;;;;5057872;28;20047;-47
2022/06/17 07:53:16;;;;;;;5.63;4.15;;;18.80;99.90;;;;;;5024536;28;20041;-49
2022/06/17 07:55:43;;;;;;;5.18;3.97;;;18.90;99.90;;;;;;5049475;28;20332;-47
2022/06/17 07:58:13;;;;;;;6.18;4.55;;;19.00;99.90;;;;;;5054111;28;20048;-51
2022/06/17 08:00:43;;;;;;;8.00;4.40;;;19.00;99.90;;;;;;5036209;28;20048;-49
2022/06/17 08:03:10;;;;;;;8.43;4.10;;;19.10;99.90;;;;;;5057259;28;20405;-47
2022/06/17 08:05:37;;;;;;;6.75;4.70;;;19.20;99.90;;;;;;5052463;28;20037;-48
2022/06/17 08:08:04;;;;;;;6.95;4.43;;;19.30;99.90;;;;;;5052666;28;20456;-46
2022/06/17 08:10:33;;;;;;;5.32;3.72;;;19.30;99.90;;;;;;5066861;28;20037;-51
2022/06/17 08:12:59;;;;;;;5.80;3.97;;;19.40;99.90;;;;;;5047221;28;20037;-48
2022/06/17 08:15:26;;;;;;;6.03;3.92;;;19.40;99.90;;;;;;5057205;28;20029;-49
2022/06/17 08:17:52;;;;;;;9.27;4.18;;;19.60;99.90;;;;;;5045228;28;20362;-49
2022/06/17 08:20:27;;;;;;;8.15;4.95;;;19.60;99.90;;;;;;5016830;28;20518;-49
2022/06/17 08:22:54;;;;;;;5.18;4.13;;;19.70;99.90;;;;;;5042943;28;20041;-47
2022/06/17 08:25:20;;;;;;;11.32;4.90;;;19.70;99.90;;;;;;5040708;28;20033;-48
2022/06/17 08:27:54;;;;;;;6.82;4.30;;;19.80;99.90;;;;;;5041552;28;20052;-47
2022/06/17 08:30:25;;;;;;;5.85;3.55;;;19.90;99.90;;;;;;5041822;28;20033;-50
2022/06/17 08:32:55;;;;;;;7.55;3.58;;;20.00;99.90;;;;;;5038562;28;20061;-48
2022/06/17 08:35:25;;;;;;;5.78;3.88;;;20.00;99.90;;;;;;5037251;28;20421;-47
2022/06/17 08:37:57;;;;;;;6.00;3.40;;;20.20;99.90;;;;;;5040028;28;20041;-47
2022/06/17 08:40:34;;;;;;;6.90;3.38;;;20.30;99.90;;;;;;5040794;28;20044;-48
2022/06/17 08:43:23;;;;;;;6.50;4.20;;;20.40;99.90;;;;;;5040688;28;20183;-46
2022/06/17 08:46:06;;;;;;;7.22;3.10;;;20.50;99.90;;;;;;5044139;28;20072;-48
2022/06/17 08:48:53;;;;;;;8.13;3.40;;;20.60;99.90;;;;;;5037345;28;20129;-47
2022/06/17 08:51:41;;;;;;;5.80;3.00;;;20.70;99.90;;;;;;5043188;28;20045;-48
2022/06/17 08:54:39;;;;;;;8.05;3.03;;;20.90;99.90;;;;;;5045443;28;20072;-48
2022/06/17 08:57:12;;;;;;;5.75;2.75;;;21.00;99.90;;;;;;5042465;28;20038;-51
2022/06/17 09:00:06;;;;;;;4.13;2.80;;;21.20;99.90;;;;;;5043472;28;20095;-47
2022/06/17 09:02:31;;;;;;;;;;;21.30;99.90;;;;;;5047944;28;20121;-47
2022/06/17 09:05:18;;;;;;;5.82;2.60;;;21.50;99.90;;;;;;5037186;28;20672;-48
2022/06/17 09:08:02;;;;;;;81.53;5.68;;;21.70;99.90;;;;;;5049358;28;20499;-45
2022/06/17 09:11:04;;;;;;;37.15;3.90;;;21.90;99.90;;;;;;5040949;28;20094;-45
2022/06/17 09:13:51;;;;;;;18.15;3.10;;;22.00;99.90;;;;;;5029812;28;20156;-48
2022/06/17 09:16:40;;;;;;;14.63;2.80;;;22.10;99.90;;;;;;5046016;28;20052;-49
2022/06/17 09:19:08;;;;;;;11.75;2.85;;;22.20;99.90;;;;;;5049614;28;20086;-49
2022/06/17 09:21:47;;;;;;;6.97;2.58;;;22.30;99.90;;;;;;5047152;28;20119;-46
2022/06/17 09:24:19;;;;;;;8.88;2.50;;;22.40;99.90;;;;;;5042745;28;20063;-49
2022/06/17 09:27:04;;;;;;;6.05;1.92;;;22.50;99.90;;;;;;5039323;28;20048;-44
2022/06/17 09:29:44;;;;;;;7.35;1.90;;;22.60;99.90;;;;;;5045472;28;20102;-46
2022/06/17 09:32:45;;;;;;;8.65;1.70;;;22.60;99.90;;;;;;5032528;28;20113;-47
2022/06/17 09:35:20;;;;;;;4.15;1.63;;;22.80;99.90;;;;;;5015744;28;20468;-45
2022/06/17 09:38:08;;;;;;;4.63;1.85;;;22.80;99.90;;;;;;5032075;28;20380;-49
2022/06/17 09:40:50;;;;;;;3.58;1.60;;;22.90;99.90;;;;;;5053523;28;20059;-44
2022/06/17 09:43:35;;;;;;;5.07;1.77;;;23.00;99.90;;;;;;5042136;28;20414;-48
2022/06/17 09:46:20;;;;;;;4.13;1.67;;;23.00;99.90;;;;;;5046757;28;20418;-48
2022/06/17 09:49:00;;;;;;;4.65;1.88;;;23.10;99.90;;;;;;5036946;28;20037;-44
2022/06/17 09:51:34;;;;;;;5.63;2.00;;;23.10;99.90;;;;;;5046517;28;20375;-49
2022/06/17 09:54:07;;;;;;;5.80;1.63;;;23.20;99.90;;;;;;5049515;28;20036;-46
2022/06/17 09:56:47;;;;;;;5.03;1.35;;;23.30;99.90;;;;;;5037791;28;20087;-45
2022/06/17 09:59:22;;;;;;;5.28;1.30;;;23.40;99.90;;;;;;5049204;28;20036;-45
2022/06/17 10:01:48;;;;;;;3.97;1.48;;;23.40;99.90;;;;;;5035554;28;20120;-44
2022/06/17 10:04:16;;;;;;;2.08;1.50;;;23.50;99.90;;;;;;5036227;28;20108;-45
2022/06/17 10:06:54;;;;;;;7.03;2.10;;;23.60;99.90;;;;;;5048214;28;20052;-48
2022/06/17 10:09:41;;;;;;;5.90;1.70;;;23.60;99.90;;;;;;5050928;28;20494;-45
2022/06/17 10:12:32;;;;;;;7.78;1.40;;;23.70;99.90;;;;;;5050179;28;20033;-46
2022/06/17 10:15:09;;;;;;;4.68;1.80;;;23.70;99.90;;;;;;5048442;28;20033;-47
2022/06/17 10:20:58;;;;;;;4.32;1.40;;;23.90;99.90;;;;;;5043289;28;20064;-48
2022/06/17 10:23:32;;;;;;;4.53;1.70;;;23.90;99.90;;;;;;5030503;28;20796;-50
2022/06/17 10:26:32;;;;;;;2.67;0.80;;;24.00;99.90;;;;;;5043006;28;20044;-46
2022/06/17 10:29:07;;;;;;;4.75;1.30;;;24.00;99.90;;;;;;5036013;28;20126;-47
2022/06/17 10:31:37;;;;;;;4.43;1.25;;;24.10;99.90;;;;;;5021861;28;20049;-47
2022/06/17 10:34:17;;;;;;;3.80;1.13;;;24.10;99.90;;;;;;5038139;28;20123;-48
2022/06/17 10:36:45;;;;;;;4.53;1.20;;;24.20;99.90;;;;;;5050243;28;20037;-47
2022/06/17 10:39:14;;;;;;;2.67;1.00;;;24.10;99.90;;;;;;5066650;28;20049;-47
2022/06/17 10:41:40;;;;;;;2.53;1.10;;;24.20;99.90;;;;;;5042126;28;20096;-47
2022/06/17 10:44:11;;;;;;;5.25;1.50;;;24.20;99.90;;;;;;5041207;28;20083;-51
2022/06/17 10:46:43;;;;;;;3.15;1.20;;;24.20;99.90;;;;;;5051786;28;20070;-46
2022/06/17 10:49:09;;;;;;;2.80;1.00;;;24.20;99.90;;;;;;5042122;28;20064;-46
2022/06/17 10:51:37;;;;;;;4.65;1.55;;;24.20;99.90;;;;;;5044629;28;20053;-45
2022/06/17 10:54:13;;;;;;;2.85;1.13;;;24.20;99.90;;;;;;5043275;28;20037;-48
2022/06/17 10:56:54;;;;;;;4.25;1.73;;;24.20;99.90;;;;;;5044241;28;20109;-44
2022/06/17 10:59:34;;;;;;;3.65;1.38;;;24.30;99.90;;;;;;5045541;28;20033;-48
2022/06/17 11:02:00;;;;;;;5.28;1.23;;;24.30;99.90;;;;;;5047940;28;20037;-47
2022/06/17 11:04:32;;;;;;;4.35;1.20;;;24.30;99.90;;;;;;5045439;28;20566;-48
2022/06/17 11:07:15;;;;;;;4.43;1.17;;;24.30;99.90;;;;;;5046284;28;20088;-45
2022/06/17 11:09:49;;;;;;;4.07;1.45;;;24.40;99.90;;;;;;5035358;28;20045;-45
2022/06/17 11:12:22;;;;;;;3.03;0.93;;;24.40;99.90;;;;;;5034592;28;20134;-47
2022/06/17 11:15:03;;;;;;;6.05;1.35;;;24.40;99.90;;;;;;5042551;28;20029;-45
2022/06/17 11:17:46;;;;;;;4.22;1.15;;;24.50;99.90;;;;;;5037512;28;20045;-45
2022/06/17 11:20:28;;;;;;;4.55;1.27;;;24.60;99.90;;;;;;5048185;28;20153;-45
2022/06/17 11:23:00;;;;;;;4.27;1.40;;;24.60;99.90;;;;;;5031155;28;20120;-47
2022/06/17 11:25:32;;;;;;;4.28;1.30;;;24.70;99.90;;;;;;5046299;28;20290;-45
2022/06/17 11:28:18;;;;;;;5.60;3.38;;;24.70;99.90;;;;;;5056684;28;20044;-45
2022/06/17 11:30:52;;;;;;;6.90;2.20;;;24.80;99.90;;;;;;5042955;28;20502;-46
2022/06/17 11:33:40;;;;;;;4.75;2.00;;;24.80;99.90;;;;;;5048043;28;20091;-45
2022/06/17 11:36:17;;;;;;;7.47;2.38;;;24.90;99.90;;;;;;5034532;28;20076;-45
2022/06/17 11:38:44;;;;;;;4.90;1.67;;;25.00;99.90;;;;;;5050528;28;20053;-45
2022/06/17 11:41:10;;;;;;;4.32;1.70;;;25.00;99.90;;;;;;5049481;28;20075;-46
2022/06/17 11:43:39;;;;;;;4.85;1.30;;;25.10;99.90;;;;;;5050327;28;20060;-48
2022/06/17 11:46:18;;;;;;;4.05;1.30;;;25.20;99.90;;;;;;5050622;28;20546;-45
2022/06/17 11:48:48;;;;;;;5.63;1.50;;;25.20;99.70;;;;;;5048393;28;20041;-45
2022/06/17 11:51:28;;;;;;;3.30;1.30;;;25.30;99.20;;;;;;5032678;28;20045;-48
2022/06/17 11:53:58;;;;;;;6.28;1.50;;;25.40;99.50;;;;;;5050240;28;20064;-44
2022/06/17 11:56:30;;;;;;;5.18;1.02;;;25.50;99.30;;;;;;5048756;28;20040;-46
2022/06/17 11:59:10;;;;;;;5.57;1.35;;;25.50;99.00;;;;;;5048640;28;20133;-46
2022/06/17 12:01:37;;;;;;;6.15;1.20;;;25.60;99.00;;;;;;5049980;28;20040;-47
2022/06/17 12:04:03;;;;;;;3.40;1.15;;;25.70;98.80;;;;;;5049836;28;20098;-47
2022/06/17 12:06:43;;;;;;;4.82;1.25;;;25.70;98.70;;;;;;5049737;28;20399;-45
2022/06/17 12:09:26;;;;;;;3.40;1.52;;;25.80;98.70;;;;;;5048492;28;20041;-45
2022/06/17 12:11:56;;;;;;;5.93;1.30;;;25.90;97.50;;;;;;5052329;28;20037;-47
2022/06/17 12:14:45;;;;;;;7.57;1.77;;;25.90;96.70;;;;;;5053306;28;20079;-45
2022/06/17 12:17:14;;;;;;;5.10;1.67;;;26.00;96.80;;;;;;5052106;28;20094;-48
2022/06/17 12:19:39;;;;;;;4.47;1.55;;;26.00;96.40;;;;;;5052010;28;20521;-46
2022/06/17 12:22:28;;;;;;;3.88;1.00;;;26.10;96.50;;;;;;5035312;28;20044;-48
2022/06/17 12:25:06;;;;;;;3.65;1.10;;;26.10;96.50;;;;;;5051572;28;20067;-45
2022/06/17 12:27:37;;;;;;;5.55;1.17;;;26.20;96.30;;;;;;5053067;28;20102;-45
2022/06/17 12:30:09;;;;;;;3.72;1.52;;;26.20;95.50;;;;;;5035374;28;20045;-44
2022/06/17 12:32:49;;;;;;;5.78;1.30;;;26.30;95.10;;;;;;5051804;28;20080;-45
2022/06/17 12:35:27;;;;;;;4.75;1.10;;;26.40;95.10;;;;;;5053225;28;20041;-46
2022/06/17 12:38:05;;;;;;;5.90;1.60;;;26.50;94.60;;;;;;5051772;28;20033;-47
2022/06/17 12:40:45;;;;;;;4.28;1.50;;;26.60;94.00;;;;;;5051843;28;20044;-48
2022/06/17 12:43:28;;;;;;;3.50;1.10;;;26.60;92.80;;;;;;5051013;28;20049;-47
2022/06/17 12:46:01;;;;;;;5.40;1.40;;;26.70;93.60;;;;;;5052858;28;20044;-48
2022/06/17 12:48:49;;;;;;;2.65;1.13;;;26.80;92.90;;;;;;5051272;28;20494;-47
2022/06/17 12:54:23;;;;;;;6.38;1.40;;;27.00;92.60;;;;;;5052806;28;20053;-46
2022/06/17 12:56:58;;;;;;;3.85;1.38;;;27.10;92.30;;;;;;5050911;28;20049;-45
2022/06/17 12:59:48;;;;;;;4.70;1.13;;;27.20;92.00;;;;;;5051363;28;20045;-46
2022/06/17 13:02:20;;;;;;;3.33;1.30;;;27.30;91.90;;;;;;5051310;28;20045;-44
2022/06/17 13:05:01;;;;;;;3.72;1.10;;;27.30;91.30;;;;;;5034331;28;20045;-49
2022/06/17 13:07:41;;;;;;;5.50;1.08;;;27.40;91.40;;;;;;5052640;28;20057;-47
2022/06/17 13:10:42;;;;;;;4.28;1.10;;;27.40;90.80;;;;;;5051081;28;20035;-44
2022/06/17 13:13:14;;;;;;;5.65;1.58;;;27.50;90.60;;;;;;5052020;28;20139;-45
2022/06/17 13:16:19;;;;;;;3.78;1.30;;;27.50;89.10;;;;;;5052431;28;20472;-46
2022/06/17 13:19:21;;;;;;;4.82;1.60;;;27.50;87.20;;;;;;5029968;28;20510;-47
2022/06/17 13:22:32;;;;;;;5.70;1.23;;;27.60;87.80;;;;;;5034017;28;20106;-45
2022/06/17 13:25:29;;;;;;;4.63;1.33;;;27.60;88.00;;;;;;5050840;28;20828;-47
2022/06/17 13:28:33;;;;;;;4.45;1.58;;;27.60;87.30;;;;;;5052218;28;20409;-44
2022/06/17 13:31:08;;;;;;;4.70;1.00;;;27.50;85.90;;;;;;5052376;28;20056;-46
2022/06/17 13:33:40;;;;;;;6.03;1.15;;;27.50;85.80;;;;;;5050954;28;20391;-45